sensor_id;sensor_type;location;lat;lon;timestamp;P1;durP1;ratioP1;P2;durP2;ratioP2
34142;SDS011;20419;10.658;106.724;2023-07-13T00:02:18;5.60;;;4.60;;
34142;SDS011;20419;10.658;106.724;2023-07-13T00:04:45;5.80;;;4.75;;
34142;SDS011;20419;10.658;106.724;2023-07-13T00:07:12;6.50;;;5.38;;
34142;SDS011;20419;10.658;106.724;2023-07-13T00:09:40;5.95;;;4.60;;
34142;SDS011;20419;10.658;106.724;2023-07-13T00:12:21;5.82;;;4.70;;
34142;SDS011;20419;10.658;106.724;2023-07-13T00:14:48;5.63;;;4.75;;
34142;SDS011;20419;10.658;106.724;2023-07-13T00:17:16;5.90;;;4.53;;
34142;SDS011;20419;10.658;106.724;2023-07-13T00:19:43;6.07;;;4.50;;
34142;SDS011;20419;10.658;106.724;2023-07-13T00:22:11;5.50;;;4.50;;
34142;SDS011;20419;10.658;106.724;2023-07-13T00:24:37;5.47;;;4.40;;
34142;SDS011;20419;10.658;106.724;2023-07-13T00:27:08;6.47;;;5.03;;
34142;SDS011;20419;10.658;106.724;2023-07-13T00:29:35;6.35;;;4.57;;
34142;SDS011;20419;10.658;106.724;2023-07-13T00:32:03;6.10;;;4.85;;
34142;SDS011;20419;10.658;106.724;2023-07-13T00:34:30;5.43;;;4.20;;
34142;SDS011;20419;10.658;106.724;2023-07-13T00:36:57;4.90;;;4.00;;
34142;SDS011;20419;10.658;106.724;2023-07-13T00:39:24;7.25;;;4.97;;
34142;SDS011;20419;10.658;106.724;2023-07-13T00:41:51;6.72;;;5.15;;
34142;SDS011;20419;10.658;106.724;2023-07-13T00:44:18;5.95;;;4.93;;
34142;SDS011;20419;10.658;106.724;2023-07-13T00:46:46;6.40;;;4.83;;
34142;SDS011;20419;10.658;106.724;2023-07-13T00:49:15;6.78;;;5.00;;
34142;SDS011;20419;10.658;106.724;2023-07-13T00:51:44;5.68;;;4.60;;
34142;SDS011;20419;10.658;106.724;2023-07-13T00:54:13;6.53;;;4.90;;
34142;SDS011;20419;10.658;106.724;2023-07-13T00:56:41;6.82;;;5.30;;
34142;SDS011;20419;10.658;106.724;2023-07-13T00:59:09;7.50;;;5.43;;
34142;SDS011;20419;10.658;106.724;2023-07-13T01:01:37;7.20;;;5.43;;
34142;SDS011;20419;10.658;106.724;2023-07-13T01:04:04;6.93;;;5.30;;
34142;SDS011;20419;10.658;106.724;2023-07-13T01:06:34;6.65;;;5.32;;
34142;SDS011;20419;10.658;106.724;2023-07-13T01:09:01;8.55;;;6.20;;
34142;SDS011;20419;10.658;106.724;2023-07-13T01:11:29;7.20;;;5.65;;
34142;SDS011;20419;10.658;106.724;2023-07-13T01:13:55;8.30;;;5.57;;
34142;SDS011;20419;10.658;106.724;2023-07-13T01:16:27;7.50;;;6.20;;
34142;SDS011;20419;10.658;106.724;2023-07-13T01:18:55;7.38;;;5.60;;
34142;SDS011;20419;10.658;106.724;2023-07-13T01:21:27;7.93;;;6.07;;
34142;SDS011;20419;10.658;106.724;2023-07-13T01:23:56;8.38;;;5.97;;
34142;SDS011;20419;10.658;106.724;2023-07-13T01:26:23;8.10;;;5.60;;
34142;SDS011;20419;10.658;106.724;2023-07-13T01:28:50;6.38;;;5.00;;
34142;SDS011;20419;10.658;106.724;2023-07-13T01:31:16;7.32;;;5.65;;
34142;SDS011;20419;10.658;106.724;2023-07-13T01:33:43;7.32;;;5.47;;
34142;SDS011;20419;10.658;106.724;2023-07-13T01:36:11;7.95;;;5.55;;
34142;SDS011;20419;10.658;106.724;2023-07-13T01:38:39;8.63;;;5.78;;
34142;SDS011;20419;10.658;106.724;2023-07-13T01:41:06;6.90;;;5.35;;
34142;SDS011;20419;10.658;106.724;2023-07-13T01:43:33;7.32;;;5.72;;
34142;SDS011;20419;10.658;106.724;2023-07-13T01:46:00;7.70;;;5.90;;
34142;SDS011;20419;10.658;106.724;2023-07-13T01:48:27;8.07;;;5.85;;
34142;SDS011;20419;10.658;106.724;2023-07-13T01:50:53;7.20;;;5.60;;
34142;SDS011;20419;10.658;106.724;2023-07-13T01:53:20;7.68;;;5.70;;
34142;SDS011;20419;10.658;106.724;2023-07-13T01:55:47;8.23;;;6.10;;
34142;SDS011;20419;10.658;106.724;2023-07-13T01:58:14;7.80;;;5.70;;
34142;SDS011;20419;10.658;106.724;2023-07-13T02:00:41;8.18;;;5.65;;
34142;SDS011;20419;10.658;106.724;2023-07-13T02:03:08;7.35;;;5.80;;
34142;SDS011;20419;10.658;106.724;2023-07-13T02:05:34;9.00;;;5.85;;
34142;SDS011;20419;10.658;106.724;2023-07-13T02:08:01;8.32;;;5.68;;
34142;SDS011;20419;10.658;106.724;2023-07-13T02:10:28;7.20;;;5.63;;
34142;SDS011;20419;10.658;106.724;2023-07-13T02:12:55;8.23;;;5.63;;
34142;SDS011;20419;10.658;106.724;2023-07-13T02:15:22;7.70;;;6.15;;
34142;SDS011;20419;10.658;106.724;2023-07-13T02:17:48;8.55;;;5.70;;
34142;SDS011;20419;10.658;106.724;2023-07-13T02:20:15;9.02;;;5.68;;
34142;SDS011;20419;10.658;106.724;2023-07-13T02:22:42;8.13;;;6.00;;
34142;SDS011;20419;10.658;106.724;2023-07-13T02:25:09;7.68;;;5.35;;
34142;SDS011;20419;10.658;106.724;2023-07-13T02:27:36;6.90;;;5.28;;
34142;SDS011;20419;10.658;106.724;2023-07-13T02:30:03;7.13;;;5.70;;
34142;SDS011;20419;10.658;106.724;2023-07-13T02:32:30;6.85;;;5.45;;
34142;SDS011;20419;10.658;106.724;2023-07-13T02:34:57;7.28;;;5.60;;
34142;SDS011;20419;10.658;106.724;2023-07-13T02:37:23;7.63;;;6.00;;
34142;SDS011;20419;10.658;106.724;2023-07-13T02:39:50;7.43;;;5.22;;
34142;SDS011;20419;10.658;106.724;2023-07-13T02:42:17;6.75;;;5.35;;
34142;SDS011;20419;10.658;106.724;2023-07-13T02:44:44;8.05;;;5.90;;
34142;SDS011;20419;10.658;106.724;2023-07-13T02:47:11;7.32;;;5.28;;
34142;SDS011;20419;10.658;106.724;2023-07-13T02:49:38;7.68;;;6.22;;
34142;SDS011;20419;10.658;106.724;2023-07-13T02:52:05;7.15;;;5.30;;
34142;SDS011;20419;10.658;106.724;2023-07-13T02:54:32;7.25;;;5.28;;
34142;SDS011;20419;10.658;106.724;2023-07-13T02:56:59;7.05;;;5.25;;
34142;SDS011;20419;10.658;106.724;2023-07-13T02:59:26;6.75;;;5.50;;
34142;SDS011;20419;10.658;106.724;2023-07-13T03:01:53;6.32;;;4.75;;
34142;SDS011;20419;10.658;106.724;2023-07-13T03:04:23;7.35;;;5.10;;
34142;SDS011;20419;10.658;106.724;2023-07-13T03:06:50;7.22;;;5.65;;
34142;SDS011;20419;10.658;106.724;2023-07-13T03:09:16;6.50;;;5.45;;
34142;SDS011;20419;10.658;106.724;2023-07-13T03:11:43;7.22;;;5.15;;
34142;SDS011;20419;10.658;106.724;2023-07-13T03:14:10;7.70;;;5.93;;
34142;SDS011;20419;10.658;106.724;2023-07-13T03:16:37;6.85;;;5.18;;
34142;SDS011;20419;10.658;106.724;2023-07-13T03:19:04;6.43;;;5.35;;
34142;SDS011;20419;10.658;106.724;2023-07-13T03:21:31;6.60;;;5.03;;
34142;SDS011;20419;10.658;106.724;2023-07-13T03:23:58;6.97;;;4.90;;
34142;SDS011;20419;10.658;106.724;2023-07-13T03:26:24;6.45;;;5.32;;
34142;SDS011;20419;10.658;106.724;2023-07-13T03:28:51;6.68;;;5.20;;
34142;SDS011;20419;10.658;106.724;2023-07-13T03:31:19;6.22;;;4.95;;
34142;SDS011;20419;10.658;106.724;2023-07-13T03:33:47;7.60;;;5.70;;
34142;SDS011;20419;10.658;106.724;2023-07-13T03:36:15;8.10;;;5.25;;
34142;SDS011;20419;10.658;106.724;2023-07-13T03:38:46;6.78;;;4.95;;
34142;SDS011;20419;10.658;106.724;2023-07-13T03:41:14;6.47;;;5.07;;
34142;SDS011;20419;10.658;106.724;2023-07-13T03:43:42;7.17;;;4.63;;
34142;SDS011;20419;10.658;106.724;2023-07-13T03:46:09;6.57;;;4.72;;
34142;SDS011;20419;10.658;106.724;2023-07-13T03:48:35;5.95;;;4.65;;
34142;SDS011;20419;10.658;106.724;2023-07-13T03:51:02;6.53;;;4.78;;
34142;SDS011;20419;10.658;106.724;2023-07-13T03:53:29;6.97;;;5.25;;
34142;SDS011;20419;10.658;106.724;2023-07-13T03:55:56;5.97;;;4.20;;
34142;SDS011;20419;10.658;106.724;2023-07-13T03:58:33;6.25;;;4.57;;
34142;SDS011;20419;10.658;106.724;2023-07-13T04:01:01;6.70;;;4.70;;
34142;SDS011;20419;10.658;106.724;2023-07-13T04:03:28;5.75;;;4.57;;
34142;SDS011;20419;10.658;106.724;2023-07-13T04:05:58;6.97;;;4.88;;
34142;SDS011;20419;10.658;106.724;2023-07-13T04:08:26;6.00;;;4.70;;
34142;SDS011;20419;10.658;106.724;2023-07-13T04:10:53;5.70;;;4.50;;
34142;SDS011;20419;10.658;106.724;2023-07-13T04:13:20;7.05;;;4.65;;
34142;SDS011;20419;10.658;106.724;2023-07-13T04:15:47;6.53;;;4.35;;
34142;SDS011;20419;10.658;106.724;2023-07-13T04:18:14;7.43;;;5.03;;
34142;SDS011;20419;10.658;106.724;2023-07-13T04:20:41;5.68;;;4.38;;
34142;SDS011;20419;10.658;106.724;2023-07-13T04:23:08;6.03;;;4.60;;
34142;SDS011;20419;10.658;106.724;2023-07-13T04:25:35;6.80;;;4.35;;
34142;SDS011;20419;10.658;106.724;2023-07-13T04:28:02;6.43;;;4.85;;
34142;SDS011;20419;10.658;106.724;2023-07-13T04:30:30;6.23;;;4.60;;
34142;SDS011;20419;10.658;106.724;2023-07-13T04:32:57;6.22;;;4.55;;
34142;SDS011;20419;10.658;106.724;2023-07-13T04:35:24;6.50;;;4.47;;
34142;SDS011;20419;10.658;106.724;2023-07-13T04:37:50;6.47;;;4.85;;
34142;SDS011;20419;10.658;106.724;2023-07-13T04:40:17;6.32;;;4.40;;
34142;SDS011;20419;10.658;106.724;2023-07-13T04:42:45;7.40;;;4.80;;
34142;SDS011;20419;10.658;106.724;2023-07-13T04:45:12;5.43;;;4.40;;
34142;SDS011;20419;10.658;106.724;2023-07-13T04:47:39;5.88;;;4.68;;
34142;SDS011;20419;10.658;106.724;2023-07-13T04:50:07;5.93;;;4.40;;
34142;SDS011;20419;10.658;106.724;2023-07-13T04:52:36;6.00;;;4.70;;
34142;SDS011;20419;10.658;106.724;2023-07-13T04:55:03;6.28;;;4.93;;
34142;SDS011;20419;10.658;106.724;2023-07-13T04:57:30;5.80;;;4.68;;
34142;SDS011;20419;10.658;106.724;2023-07-13T04:59:58;5.93;;;4.82;;
34142;SDS011;20419;10.658;106.724;2023-07-13T05:02:26;4.95;;;3.95;;
34142;SDS011;20419;10.658;106.724;2023-07-13T05:04:53;5.38;;;4.03;;
34142;SDS011;20419;10.658;106.724;2023-07-13T05:07:21;6.55;;;4.55;;
34142;SDS011;20419;10.658;106.724;2023-07-13T05:09:48;5.80;;;4.20;;
34142;SDS011;20419;10.658;106.724;2023-07-13T05:12:15;5.57;;;4.05;;
34142;SDS011;20419;10.658;106.724;2023-07-13T05:14:41;7.82;;;4.50;;
34142;SDS011;20419;10.658;106.724;2023-07-13T05:17:08;6.43;;;4.35;;
34142;SDS011;20419;10.658;106.724;2023-07-13T05:19:36;4.40;;;3.72;;
34142;SDS011;20419;10.658;106.724;2023-07-13T05:22:03;5.65;;;4.53;;
34142;SDS011;20419;10.658;106.724;2023-07-13T05:24:30;6.07;;;4.45;;
34142;SDS011;20419;10.658;106.724;2023-07-13T05:26:56;5.60;;;4.30;;
34142;SDS011;20419;10.658;106.724;2023-07-13T05:29:23;5.07;;;4.18;;
34142;SDS011;20419;10.658;106.724;2023-07-13T05:31:51;6.25;;;4.63;;
34142;SDS011;20419;10.658;106.724;2023-07-13T05:34:18;6.15;;;4.35;;
34142;SDS011;20419;10.658;106.724;2023-07-13T05:36:45;5.82;;;4.30;;
34142;SDS011;20419;10.658;106.724;2023-07-13T05:39:12;7.15;;;4.93;;
34142;SDS011;20419;10.658;106.724;2023-07-13T05:41:39;5.63;;;3.95;;
34142;SDS011;20419;10.658;106.724;2023-07-13T05:44:06;5.70;;;4.10;;
34142;SDS011;20419;10.658;106.724;2023-07-13T05:46:34;5.30;;;3.97;;
34142;SDS011;20419;10.658;106.724;2023-07-13T05:49:02;5.97;;;4.67;;
34142;SDS011;20419;10.658;106.724;2023-07-13T05:51:29;5.15;;;4.15;;
34142;SDS011;20419;10.658;106.724;2023-07-13T05:53:56;5.57;;;4.13;;
34142;SDS011;20419;10.658;106.724;2023-07-13T05:56:23;5.82;;;4.07;;
34142;SDS011;20419;10.658;106.724;2023-07-13T05:58:53;5.55;;;4.32;;
34142;SDS011;20419;10.658;106.724;2023-07-13T06:01:20;5.18;;;3.88;;
34142;SDS011;20419;10.658;106.724;2023-07-13T06:03:48;5.40;;;4.22;;
34142;SDS011;20419;10.658;106.724;2023-07-13T06:06:16;5.30;;;4.10;;
34142;SDS011;20419;10.658;106.724;2023-07-13T06:08:43;6.72;;;4.70;;
34142;SDS011;20419;10.658;106.724;2023-07-13T06:11:20;5.15;;;4.10;;
34142;SDS011;20419;10.658;106.724;2023-07-13T06:13:47;5.45;;;4.32;;
34142;SDS011;20419;10.658;106.724;2023-07-13T06:16:15;5.40;;;4.18;;
34142;SDS011;20419;10.658;106.724;2023-07-13T06:18:42;5.25;;;3.92;;
34142;SDS011;20419;10.658;106.724;2023-07-13T06:21:10;5.72;;;4.00;;
34142;SDS011;20419;10.658;106.724;2023-07-13T06:23:38;5.97;;;4.32;;
34142;SDS011;20419;10.658;106.724;2023-07-13T06:26:05;4.82;;;3.70;;
34142;SDS011;20419;10.658;106.724;2023-07-13T06:28:32;6.03;;;4.45;;
34142;SDS011;20419;10.658;106.724;2023-07-13T06:30:59;5.88;;;4.65;;
34142;SDS011;20419;10.658;106.724;2023-07-13T06:33:27;5.45;;;4.45;;
34142;SDS011;20419;10.658;106.724;2023-07-13T06:35:54;5.78;;;4.47;;
34142;SDS011;20419;10.658;106.724;2023-07-13T06:38:21;6.22;;;4.53;;
34142;SDS011;20419;10.658;106.724;2023-07-13T06:40:48;5.28;;;4.03;;
34142;SDS011;20419;10.658;106.724;2023-07-13T06:43:15;5.45;;;4.00;;
34142;SDS011;20419;10.658;106.724;2023-07-13T06:45:44;5.75;;;4.07;;
34142;SDS011;20419;10.658;106.724;2023-07-13T06:48:13;5.40;;;4.18;;
34142;SDS011;20419;10.658;106.724;2023-07-13T06:50:41;7.03;;;4.15;;
34142;SDS011;20419;10.658;106.724;2023-07-13T06:53:08;5.70;;;3.97;;
34142;SDS011;20419;10.658;106.724;2023-07-13T06:55:35;5.68;;;3.85;;
34142;SDS011;20419;10.658;106.724;2023-07-13T06:58:02;4.85;;;3.75;;
34142;SDS011;20419;10.658;106.724;2023-07-13T07:00:29;6.28;;;4.30;;
34142;SDS011;20419;10.658;106.724;2023-07-13T07:02:56;5.28;;;3.92;;
34142;SDS011;20419;10.658;106.724;2023-07-13T07:05:23;5.18;;;3.75;;
34142;SDS011;20419;10.658;106.724;2023-07-13T07:07:51;5.53;;;3.80;;
34142;SDS011;20419;10.658;106.724;2023-07-13T07:10:18;5.57;;;3.90;;
34142;SDS011;20419;10.658;106.724;2023-07-13T07:12:45;5.15;;;3.58;;
34142;SDS011;20419;10.658;106.724;2023-07-13T07:15:13;7.03;;;4.13;;
34142;SDS011;20419;10.658;106.724;2023-07-13T07:17:40;6.80;;;4.55;;
34142;SDS011;20419;10.658;106.724;2023-07-13T07:20:07;5.38;;;3.78;;
34142;SDS011;20419;10.658;106.724;2023-07-13T07:22:34;4.82;;;3.45;;
34142;SDS011;20419;10.658;106.724;2023-07-13T07:25:01;5.90;;;4.03;;
34142;SDS011;20419;10.658;106.724;2023-07-13T07:27:28;5.75;;;3.97;;
34142;SDS011;20419;10.658;106.724;2023-07-13T07:29:55;5.20;;;4.18;;
34142;SDS011;20419;10.658;106.724;2023-07-13T07:32:23;5.38;;;4.10;;
34142;SDS011;20419;10.658;106.724;2023-07-13T07:34:51;6.22;;;4.10;;
34142;SDS011;20419;10.658;106.724;2023-07-13T07:37:18;4.67;;;3.70;;
34142;SDS011;20419;10.658;106.724;2023-07-13T07:39:45;5.63;;;3.88;;
34142;SDS011;20419;10.658;106.724;2023-07-13T07:42:12;6.03;;;3.97;;
34142;SDS011;20419;10.658;106.724;2023-07-13T07:44:40;4.88;;;3.58;;
34142;SDS011;20419;10.658;106.724;2023-07-13T07:47:07;5.30;;;4.10;;
34142;SDS011;20419;10.658;106.724;2023-07-13T07:49:35;4.63;;;4.03;;
34142;SDS011;20419;10.658;106.724;2023-07-13T07:52:02;4.80;;;3.70;;
34142;SDS011;20419;10.658;106.724;2023-07-13T07:54:29;4.90;;;3.55;;
34142;SDS011;20419;10.658;106.724;2023-07-13T07:56:56;4.72;;;3.88;;
34142;SDS011;20419;10.658;106.724;2023-07-13T07:59:23;5.35;;;3.85;;
34142;SDS011;20419;10.658;106.724;2023-07-13T08:01:50;4.00;;;3.25;;
34142;SDS011;20419;10.658;106.724;2023-07-13T08:04:17;4.45;;;3.67;;
34142;SDS011;20419;10.658;106.724;2023-07-13T08:06:44;5.70;;;3.97;;
34142;SDS011;20419;10.658;106.724;2023-07-13T08:09:11;4.47;;;3.78;;
34142;SDS011;20419;10.658;106.724;2023-07-13T08:11:38;5.47;;;3.60;;
34142;SDS011;20419;10.658;106.724;2023-07-13T08:14:05;5.80;;;4.18;;
34142;SDS011;20419;10.658;106.724;2023-07-13T08:16:32;4.25;;;3.28;;
34142;SDS011;20419;10.658;106.724;2023-07-13T08:18:59;4.93;;;3.67;;
34142;SDS011;20419;10.658;106.724;2023-07-13T08:21:27;5.47;;;3.70;;
34142;SDS011;20419;10.658;106.724;2023-07-13T08:23:54;5.87;;;3.90;;
34142;SDS011;20419;10.658;106.724;2023-07-13T08:26:22;6.37;;;3.83;;
34142;SDS011;20419;10.658;106.724;2023-07-13T08:28:49;6.50;;;4.60;;
34142;SDS011;20419;10.658;106.724;2023-07-13T08:31:16;6.10;;;3.80;;
34142;SDS011;20419;10.658;106.724;2023-07-13T08:33:43;5.75;;;3.70;;
34142;SDS011;20419;10.658;106.724;2023-07-13T08:36:10;5.82;;;3.80;;
34142;SDS011;20419;10.658;106.724;2023-07-13T08:38:37;5.10;;;3.78;;
34142;SDS011;20419;10.658;106.724;2023-07-13T08:41:16;4.90;;;3.40;;
34142;SDS011;20419;10.658;106.724;2023-07-13T08:43:45;5.07;;;3.65;;
34142;SDS011;20419;10.658;106.724;2023-07-13T08:48:56;5.93;;;3.97;;
34142;SDS011;20419;10.658;106.724;2023-07-13T08:51:32;5.25;;;3.70;;
34142;SDS011;20419;10.658;106.724;2023-07-13T08:54:04;6.30;;;4.47;;
34142;SDS011;20419;10.658;106.724;2023-07-13T08:56:32;6.10;;;3.60;;
34142;SDS011;20419;10.658;106.724;2023-07-13T08:59:20;4.47;;;3.40;;
34142;SDS011;20419;10.658;106.724;2023-07-13T09:01:47;5.05;;;3.80;;
34142;SDS011;20419;10.658;106.724;2023-07-13T09:04:25;5.00;;;3.90;;
34142;SDS011;20419;10.658;106.724;2023-07-13T09:12:01;6.45;;;3.65;;
34142;SDS011;20419;10.658;106.724;2023-07-13T09:16:59;4.63;;;3.58;;
34142;SDS011;20419;10.658;106.724;2023-07-13T09:19:27;6.60;;;4.15;;
34142;SDS011;20419;10.658;106.724;2023-07-13T09:24:26;5.88;;;3.88;;
34142;SDS011;20419;10.658;106.724;2023-07-13T09:26:55;5.68;;;3.90;;
34142;SDS011;20419;10.658;106.724;2023-07-13T09:29:32;4.60;;;3.60;;
34142;SDS011;20419;10.658;106.724;2023-07-13T09:32:04;4.88;;;3.47;;
34142;SDS011;20419;10.658;106.724;2023-07-13T09:34:32;5.10;;;3.72;;
34142;SDS011;20419;10.658;106.724;2023-07-13T09:37:00;4.95;;;3.47;;
34142;SDS011;20419;10.658;106.724;2023-07-13T09:39:31;4.88;;;3.90;;
34142;SDS011;20419;10.658;106.724;2023-07-13T09:44:32;4.55;;;3.70;;
34142;SDS011;20419;10.658;106.724;2023-07-13T09:47:01;5.18;;;3.55;;
34142;SDS011;20419;10.658;106.724;2023-07-13T09:49:37;5.47;;;3.17;;
34142;SDS011;20419;10.658;106.724;2023-07-13T09:52:10;5.43;;;3.88;;
34142;SDS011;20419;10.658;106.724;2023-07-13T09:54:37;4.47;;;3.47;;
34142;SDS011;20419;10.658;106.724;2023-07-13T09:57:15;4.55;;;3.42;;
34142;SDS011;20419;10.658;106.724;2023-07-13T09:59:47;4.63;;;3.35;;
34142;SDS011;20419;10.658;106.724;2023-07-13T10:02:34;5.53;;;3.90;;
34142;SDS011;20419;10.658;106.724;2023-07-13T10:05:11;5.05;;;3.60;;
34142;SDS011;20419;10.658;106.724;2023-07-13T10:07:44;5.35;;;3.83;;
34142;SDS011;20419;10.658;106.724;2023-07-13T10:10:15;5.13;;;3.70;;
34142;SDS011;20419;10.658;106.724;2023-07-13T10:12:43;5.10;;;3.40;;
34142;SDS011;20419;10.658;106.724;2023-07-13T10:15:15;4.57;;;3.22;;
34142;SDS011;20419;10.658;106.724;2023-07-13T10:17:42;4.40;;;2.90;;
34142;SDS011;20419;10.658;106.724;2023-07-13T10:20:10;4.47;;;3.35;;
34142;SDS011;20419;10.658;106.724;2023-07-13T10:25:20;4.65;;;3.25;;
34142;SDS011;20419;10.658;106.724;2023-07-13T10:27:49;4.70;;;3.77;;
34142;SDS011;20419;10.658;106.724;2023-07-13T10:30:21;4.35;;;3.28;;
34142;SDS011;20419;10.658;106.724;2023-07-13T10:32:50;4.47;;;3.35;;
34142;SDS011;20419;10.658;106.724;2023-07-13T10:35:19;4.30;;;3.53;;
34142;SDS011;20419;10.658;106.724;2023-07-13T10:37:49;4.20;;;3.30;;
34142;SDS011;20419;10.658;106.724;2023-07-13T10:40:20;4.22;;;3.42;;
34142;SDS011;20419;10.658;106.724;2023-07-13T10:42:48;4.68;;;3.65;;
34142;SDS011;20419;10.658;106.724;2023-07-13T10:45:18;5.10;;;3.53;;
34142;SDS011;20419;10.658;106.724;2023-07-13T10:47:45;4.93;;;3.60;;
34142;SDS011;20419;10.658;106.724;2023-07-13T10:50:17;4.85;;;3.47;;
34142;SDS011;20419;10.658;106.724;2023-07-13T10:52:50;4.75;;;3.50;;
34142;SDS011;20419;10.658;106.724;2023-07-13T11:03:34;5.15;;;3.90;;
34142;SDS011;20419;10.658;106.724;2023-07-13T11:06:05;4.90;;;3.53;;
34142;SDS011;20419;10.658;106.724;2023-07-13T11:08:35;4.60;;;3.58;;
34142;SDS011;20419;10.658;106.724;2023-07-13T11:11:03;4.72;;;3.53;;
34142;SDS011;20419;10.658;106.724;2023-07-13T11:13:38;5.18;;;3.53;;
34142;SDS011;20419;10.658;106.724;2023-07-13T11:19:08;4.93;;;3.53;;
34142;SDS011;20419;10.658;106.724;2023-07-13T11:21:31;5.20;;;3.90;;
34142;SDS011;20419;10.658;106.724;2023-07-13T11:24:02;4.78;;;3.72;;
34142;SDS011;20419;10.658;106.724;2023-07-13T11:27:11;5.90;;;3.90;;
34142;SDS011;20419;10.658;106.724;2023-07-13T11:29:32;5.40;;;3.60;;
34142;SDS011;20419;10.658;106.724;2023-07-13T11:32:00;5.88;;;4.05;;
34142;SDS011;20419;10.658;106.724;2023-07-13T11:34:32;5.70;;;4.00;;
34142;SDS011;20419;10.658;106.724;2023-07-13T11:37:00;4.40;;;3.40;;
34142;SDS011;20419;10.658;106.724;2023-07-13T11:39:31;5.15;;;3.58;;
34142;SDS011;20419;10.658;106.724;2023-07-13T11:42:09;5.32;;;3.47;;
34142;SDS011;20419;10.658;106.724;2023-07-13T11:44:41;4.63;;;3.45;;
34142;SDS011;20419;10.658;106.724;2023-07-13T11:47:14;5.10;;;3.58;;
34142;SDS011;20419;10.658;106.724;2023-07-13T11:49:45;5.32;;;3.85;;
34142;SDS011;20419;10.658;106.724;2023-07-13T11:57:40;5.20;;;3.50;;
34142;SDS011;20419;10.658;106.724;2023-07-13T12:02:42;4.60;;;3.70;;
34142;SDS011;20419;10.658;106.724;2023-07-13T12:05:12;4.38;;;3.20;;
34142;SDS011;20419;10.658;106.724;2023-07-13T12:07:40;4.45;;;3.22;;
34142;SDS011;20419;10.658;106.724;2023-07-13T12:12:40;5.43;;;3.58;;
34142;SDS011;20419;10.658;106.724;2023-07-13T12:15:07;4.93;;;3.55;;
34142;SDS011;20419;10.658;106.724;2023-07-13T12:17:34;4.13;;;3.28;;
34142;SDS011;20419;10.658;106.724;2023-07-13T12:20:03;5.00;;;3.50;;
34142;SDS011;20419;10.658;106.724;2023-07-13T12:22:36;5.22;;;3.72;;
34142;SDS011;20419;10.658;106.724;2023-07-13T12:25:03;5.22;;;3.40;;
34142;SDS011;20419;10.658;106.724;2023-07-13T12:27:31;4.80;;;3.38;;
34142;SDS011;20419;10.658;106.724;2023-07-13T12:29:59;4.88;;;3.55;;
34142;SDS011;20419;10.658;106.724;2023-07-13T12:32:27;4.45;;;3.10;;
34142;SDS011;20419;10.658;106.724;2023-07-13T12:35:12;4.93;;;3.42;;
34142;SDS011;20419;10.658;106.724;2023-07-13T12:37:43;4.88;;;3.78;;
34142;SDS011;20419;10.658;106.724;2023-07-13T12:40:14;4.95;;;3.35;;
34142;SDS011;20419;10.658;106.724;2023-07-13T12:42:41;4.88;;;3.92;;
34142;SDS011;20419;10.658;106.724;2023-07-13T12:45:17;4.68;;;3.38;;
34142;SDS011;20419;10.658;106.724;2023-07-13T12:47:47;5.18;;;3.45;;
34142;SDS011;20419;10.658;106.724;2023-07-13T12:50:16;6.60;;;3.80;;
34142;SDS011;20419;10.658;106.724;2023-07-13T12:52:44;4.45;;;3.15;;
34142;SDS011;20419;10.658;106.724;2023-07-13T12:55:13;4.55;;;3.53;;
34142;SDS011;20419;10.658;106.724;2023-07-13T12:57:45;5.57;;;3.70;;
34142;SDS011;20419;10.658;106.724;2023-07-13T13:00:20;5.10;;;3.63;;
34142;SDS011;20419;10.658;106.724;2023-07-13T13:02:50;5.15;;;3.50;;
34142;SDS011;20419;10.658;106.724;2023-07-13T13:05:18;5.65;;;3.72;;
34142;SDS011;20419;10.658;106.724;2023-07-13T13:07:49;5.63;;;3.72;;
34142;SDS011;20419;10.658;106.724;2023-07-13T13:10:16;5.38;;;3.75;;
34142;SDS011;20419;10.658;106.724;2023-07-13T13:12:43;4.85;;;3.50;;
34142;SDS011;20419;10.658;106.724;2023-07-13T13:15:10;5.35;;;3.47;;
34142;SDS011;20419;10.658;106.724;2023-07-13T13:17:38;5.90;;;3.72;;
34142;SDS011;20419;10.658;106.724;2023-07-13T13:20:13;4.30;;;2.90;;
34142;SDS011;20419;10.658;106.724;2023-07-13T13:22:41;4.82;;;3.42;;
34142;SDS011;20419;10.658;106.724;2023-07-13T13:25:11;4.60;;;3.38;;
34142;SDS011;20419;10.658;106.724;2023-07-13T13:27:42;4.88;;;3.60;;
34142;SDS011;20419;10.658;106.724;2023-07-13T13:30:16;4.50;;;3.20;;
34142;SDS011;20419;10.658;106.724;2023-07-13T13:32:44;5.38;;;3.60;;
34142;SDS011;20419;10.658;106.724;2023-07-13T13:35:18;6.03;;;4.25;;
34142;SDS011;20419;10.658;106.724;2023-07-13T13:37:46;4.85;;;3.58;;
34142;SDS011;20419;10.658;106.724;2023-07-13T13:40:17;5.60;;;3.83;;
34142;SDS011;20419;10.658;106.724;2023-07-13T13:42:44;4.93;;;3.25;;
34142;SDS011;20419;10.658;106.724;2023-07-13T13:45:12;5.30;;;3.55;;
34142;SDS011;20419;10.658;106.724;2023-07-13T13:47:41;5.47;;;3.35;;
34142;SDS011;20419;10.658;106.724;2023-07-13T13:50:16;5.82;;;3.30;;
34142;SDS011;20419;10.658;106.724;2023-07-13T13:52:43;5.03;;;3.63;;
34142;SDS011;20419;10.658;106.724;2023-07-13T13:55:14;5.63;;;3.92;;
34142;SDS011;20419;10.658;106.724;2023-07-13T13:57:41;5.10;;;3.42;;
34142;SDS011;20419;10.658;106.724;2023-07-13T14:00:12;5.55;;;4.05;;
34142;SDS011;20419;10.658;106.724;2023-07-13T14:02:46;5.38;;;3.63;;
34142;SDS011;20419;10.658;106.724;2023-07-13T14:05:15;4.72;;;3.50;;
34142;SDS011;20419;10.658;106.724;2023-07-13T14:07:42;5.10;;;3.43;;
34142;SDS011;20419;10.658;106.724;2023-07-13T14:10:14;6.47;;;3.72;;
34142;SDS011;20419;10.658;106.724;2023-07-13T14:12:42;5.50;;;3.05;;
34142;SDS011;20419;10.658;106.724;2023-07-13T14:15:23;5.82;;;3.35;;
34142;SDS011;20419;10.658;106.724;2023-07-13T14:17:51;4.80;;;3.22;;
34142;SDS011;20419;10.658;106.724;2023-07-13T14:20:19;4.60;;;3.10;;
34142;SDS011;20419;10.658;106.724;2023-07-13T14:22:47;4.40;;;3.25;;
34142;SDS011;20419;10.658;106.724;2023-07-13T14:25:15;4.57;;;3.20;;
34142;SDS011;20419;10.658;106.724;2023-07-13T14:27:43;4.45;;;3.20;;
34142;SDS011;20419;10.658;106.724;2023-07-13T14:30:14;6.50;;;3.67;;
34142;SDS011;20419;10.658;106.724;2023-07-13T14:32:41;4.95;;;3.20;;
34142;SDS011;20419;10.658;106.724;2023-07-13T14:35:13;5.25;;;3.45;;
34142;SDS011;20419;10.658;106.724;2023-07-13T14:37:40;4.60;;;3.47;;
34142;SDS011;20419;10.658;106.724;2023-07-13T14:40:18;4.95;;;3.20;;
34142;SDS011;20419;10.658;106.724;2023-07-13T14:42:46;4.20;;;2.95;;
34142;SDS011;20419;10.658;106.724;2023-07-13T14:45:17;5.78;;;3.83;;
34142;SDS011;20419;10.658;106.724;2023-07-13T14:47:44;5.10;;;2.78;;
34142;SDS011;20419;10.658;106.724;2023-07-13T14:50:18;5.10;;;3.30;;
34142;SDS011;20419;10.658;106.724;2023-07-13T14:52:46;4.80;;;3.03;;
34142;SDS011;20419;10.658;106.724;2023-07-13T14:55:15;4.25;;;2.75;;
34142;SDS011;20419;10.658;106.724;2023-07-13T14:57:42;4.68;;;2.97;;
34142;SDS011;20419;10.658;106.724;2023-07-13T15:00:14;4.82;;;3.35;;
34142;SDS011;20419;10.658;106.724;2023-07-13T15:02:43;4.32;;;2.95;;
34142;SDS011;20419;10.658;106.724;2023-07-13T15:07:40;4.20;;;2.78;;
34142;SDS011;20419;10.658;106.724;2023-07-13T15:10:18;4.93;;;3.15;;
34142;SDS011;20419;10.658;106.724;2023-07-13T15:12:46;5.03;;;3.25;;